Time;durP1;ratioP1;P1;durP2;ratioP2;P2;SDS_P1;SDS_P2;PMS_P1;PMS_P2;Temp;Humidity;BMP_temperature;BMP_pressure;BME280_temperature;BME280_humidity;BME280_pressure;Samples;Min_cycle;Max_cycle;Signal;HPM_P1;HPM_P2
2021/04/30 00:02:10;;;;;;;22.83;13.20;;;13.30;99.90;;;;;;4288818;33;20181;-76
2021/04/30 00:04:46;;;;;;;26.60;15.37;;;13.30;99.90;;;;;;4288928;33;20162;-76
2021/04/30 00:07:27;;;;;;;26.47;13.97;;;13.30;99.90;;;;;;4290352;33;20189;-75
2021/04/30 00:10:08;;;;;;;26.07;14.77;;;13.20;99.90;;;;;;4288927;33;20228;-75
2021/04/30 00:13:10;;;;;;;25.90;15.37;;;13.00;99.90;;;;;;4289066;33;20180;-76
2021/04/30 00:16:19;;;;;;;26.17;13.17;;;12.90;99.90;;;;;;4288577;33;20204;-76
2021/04/30 00:19:10;;;;;;;22.93;12.97;;;12.90;99.90;;;;;;4288866;33;20307;-76
2021/04/30 00:21:58;;;;;;;24.83;12.43;;;12.80;99.90;;;;;;4288991;33;20184;-76
2021/04/30 00:24:41;;;;;;;21.83;11.83;;;12.80;99.90;;;;;;4289365;33;20149;-76
2021/04/30 00:27:26;;;;;;;21.07;11.83;;;12.70;99.90;;;;;;4288394;33;20186;-76
2021/04/30 00:30:14;;;;;;;16.40;10.27;;;12.60;99.90;;;;;;4360181;32;20151;-76
2021/04/30 00:33:01;;;;;;;21.00;10.97;;;12.50;99.90;;;;;;4377075;32;20214;-76
2021/04/30 00:35:35;;;;;;;18.93;10.67;;;12.50;99.90;;;;;;4388450;32;20155;-76
2021/04/30 00:38:10;;;;;;;19.37;10.63;;;12.50;99.90;;;;;;4393731;32;20282;-77
2021/04/30 00:40:48;;;;;;;18.37;10.10;;;12.50;99.90;;;;;;4391829;32;20147;-76
2021/04/30 00:43:32;;;;;;;15.83;9.93;;;12.50;99.90;;;;;;4393269;32;20178;-76
2021/04/30 00:46:07;;;;;;;15.60;9.93;;;12.40;99.90;;;;;;4392021;32;20162;-76
2021/04/30 00:48:45;;;;;;;17.27;10.23;;;12.30;99.90;;;;;;4391671;32;20209;-76
2021/04/30 00:51:38;;;;;;;18.37;10.23;;;12.40;99.90;;;;;;4376898;32;20418;-76
2021/04/30 00:54:13;;;;;;;19.27;10.40;;;12.30;99.90;;;;;;4376810;32;20179;-76
2021/04/30 00:57:14;;;;;;;17.20;10.10;;;12.40;99.90;;;;;;4317947;33;20474;-76
2021/04/30 01:00:02;;;;;;;19.20;9.97;;;12.30;99.90;;;;;;4317407;33;20480;-77
2021/04/30 01:03:08;;;;;;;17.73;10.50;;;12.30;99.90;;;;;;4317657;33;20252;-78
2021/04/30 01:05:49;;;;;;;14.83;9.90;;;12.30;99.90;;;;;;4317645;33;20145;-79
2021/04/30 01:09:06;;;;;;;18.10;10.03;;;12.20;99.90;;;;;;4317757;33;20156;-78
2021/04/30 01:11:48;;;;;;;15.53;9.60;;;12.20;99.90;;;;;;4317834;33;20149;-78
2021/04/30 01:14:33;;;;;;;15.90;9.70;;;12.20;99.90;;;;;;4317615;33;20211;-78
2021/04/30 01:17:32;;;;;;;15.70;9.77;;;12.20;99.90;;;;;;4317422;33;20184;-77
2021/04/30 01:20:22;;;;;;;15.80;9.47;;;12.20;99.90;;;;;;4317895;32;20467;-77
2021/04/30 01:23:02;;;;;;;18.43;10.10;;;12.20;99.90;;;;;;4376432;32;20506;-77
2021/04/30 01:25:54;;;;;;;17.13;9.77;;;12.20;99.90;;;;;;4376668;32;20163;-77
2021/04/30 01:28:40;;;;;;;18.10;9.83;;;12.20;99.90;;;;;;4376552;32;20510;-78
2021/04/30 01:31:39;;;;;;;19.67;10.40;;;12.20;99.90;;;;;;4347065;33;20322;-77
2021/04/30 01:34:25;;;;;;;21.33;10.47;;;12.10;99.90;;;;;;4347943;33;20153;-77
2021/04/30 01:37:23;;;;;;;19.07;10.83;;;12.10;99.90;;;;;;4347411;33;20148;-78
2021/04/30 01:40:39;;;;;;;18.90;10.67;;;12.20;99.90;;;;;;4345379;33;20238;-78
2021/04/30 01:43:22;;;;;;;19.87;11.03;;;12.10;99.90;;;;;;4346526;33;20344;-78
2021/04/30 01:46:17;;;;;;;16.70;10.47;;;12.10;99.90;;;;;;4347510;33;20160;-77
2021/04/30 01:49:07;;;;;;;18.70;10.70;;;12.10;99.90;;;;;;4350954;33;20432;-77
2021/04/30 01:51:41;;;;;;;16.63;9.77;;;12.10;99.90;;;;;;4379068;32;20164;-77
2021/04/30 01:54:36;;;;;;;17.70;10.40;;;12.20;99.90;;;;;;4380678;32;20440;-77
2021/04/30 01:57:13;;;;;;;18.20;10.70;;;12.20;99.90;;;;;;4378275;32;20147;-77
2021/04/30 02:00:09;;;;;;;18.27;10.97;;;12.20;99.90;;;;;;4412043;32;20185;-77
2021/04/30 02:03:20;;;;;;;17.27;10.17;;;12.20;99.90;;;;;;4423597;32;20221;-77
2021/04/30 02:06:16;;;;;;;16.90;10.73;;;12.10;99.90;;;;;;4424003;32;20150;-77
2021/04/30 02:08:56;;;;;;;17.13;9.97;;;12.20;99.90;;;;;;4434284;32;20215;-77
2021/04/30 02:11:30;;;;;;;17.87;10.80;;;12.10;99.90;;;;;;4442320;32;20150;-77
2021/04/30 02:14:10;;;;;;;17.80;10.83;;;12.20;99.90;;;;;;4441596;32;20497;-77
2021/04/30 02:16:51;;;;;;;19.83;11.37;;;12.20;99.90;;;;;;4441881;32;20183;-78
2021/04/30 02:19:27;;;;;;;19.47;11.63;;;12.10;99.90;;;;;;4441839;32;20184;-77
2021/04/30 02:22:05;;;;;;;19.50;11.53;;;12.10;99.90;;;;;;4441959;32;20150;-78
2021/04/30 02:24:41;;;;;;;18.87;11.27;;;12.00;99.90;;;;;;4441559;32;20243;-77
2021/04/30 02:27:13;;;;;;;20.43;11.50;;;12.00;99.90;;;;;;4441597;32;20151;-77
2021/04/30 02:29:45;;;;;;;21.70;11.50;;;12.00;99.90;;;;;;4441735;32;20181;-77
2021/04/30 02:32:22;;;;;;;19.60;11.50;;;11.90;99.90;;;;;;4441607;32;20202;-77
2021/04/30 02:35:16;;;;;;;18.00;11.30;;;11.90;99.90;;;;;;4441322;32;20142;-77
2021/04/30 02:38:16;;;;;;;18.33;11.43;;;11.90;99.90;;;;;;4441687;32;20193;-77
2021/04/30 02:40:49;;;;;;;18.30;10.77;;;11.90;99.90;;;;;;4441409;32;20168;-77
2021/04/30 02:43:42;;;;;;;20.00;11.60;;;11.90;99.90;;;;;;4441621;32;20322;-77
2021/04/30 02:46:16;;;;;;;19.03;11.93;;;11.90;99.90;;;;;;4441000;32;20246;-77
2021/04/30 02:49:02;;;;;;;19.67;11.83;;;11.90;99.90;;;;;;4441148;32;20154;-77
2021/04/30 02:51:40;;;;;;;21.03;11.30;;;11.90;99.90;;;;;;4471490;32;20158;-77
2021/04/30 02:54:16;;;;;;;19.70;12.10;;;11.90;99.90;;;;;;4472077;32;20466;-77
2021/04/30 02:56:49;;;;;;;19.33;11.53;;;11.90;99.90;;;;;;4471964;32;20149;-76
2021/04/30 02:59:45;;;;;;;18.80;11.63;;;11.90;99.90;;;;;;4472342;32;20431;-76
2021/04/30 03:02:25;;;;;;;18.57;11.57;;;11.80;99.90;;;;;;4472116;32;20162;-75
2021/04/30 03:05:00;;;;;;;18.83;11.47;;;11.80;99.90;;;;;;4472455;32;20146;-77
2021/04/30 03:07:51;;;;;;;21.00;11.37;;;11.90;99.90;;;;;;4472211;32;20482;-77
2021/04/30 03:10:28;;;;;;;23.77;10.87;;;11.80;99.90;;;;;;4472040;32;20345;-77
2021/04/30 03:13:15;;;;;;;17.07;10.93;;;11.80;99.90;;;;;;4471843;32;20459;-77
2021/04/30 03:15:49;;;;;;;18.83;10.67;;;11.80;99.90;;;;;;4471673;32;20191;-77
2021/04/30 03:21:29;;;;;;;18.23;10.87;;;11.70;99.90;;;;;;4422667;32;20273;-76
2021/04/30 03:24:14;;;;;;;16.07;10.10;;;11.80;99.90;;;;;;4422933;32;20192;-77
2021/04/30 03:27:03;;;;;;;19.40;11.07;;;11.80;99.90;;;;;;4423041;32;20151;-76
2021/04/30 03:29:51;;;;;;;17.50;10.10;;;11.80;99.90;;;;;;4423504;32;20151;-76
2021/04/30 03:32:37;;;;;;;18.53;10.67;;;11.80;99.90;;;;;;4422259;32;20173;-76
2021/04/30 03:35:37;;;;;;;17.23;10.63;;;11.70;99.90;;;;;;4377392;32;20175;-76
2021/04/30 03:38:25;;;;;;;16.53;10.13;;;11.80;99.90;;;;;;4377496;32;20156;-76
2021/04/30 03:41:06;;;;;;;16.67;10.60;;;11.80;99.90;;;;;;4377511;32;20152;-76
2021/04/30 03:46:47;;;;;;;17.10;10.23;;;11.80;99.90;;;;;;4377517;32;20148;-76
2021/04/30 03:49:33;;;;;;;15.77;10.83;;;11.70;99.90;;;;;;4377987;32;20175;-75
2021/04/30 03:52:11;;;;;;;15.37;10.43;;;11.80;99.90;;;;;;4377542;32;20148;-75
2021/04/30 03:54:39;;;;;;;18.20;10.53;;;11.70;99.90;;;;;;4376836;32;20327;-76
2021/04/30 03:57:11;;;;;;;15.73;10.13;;;11.70;99.90;;;;;;4387713;32;20155;-76
2021/04/30 03:59:46;;;;;;;16.63;9.93;;;11.70;99.90;;;;;;4423608;32;20166;-76
2021/04/30 04:02:24;;;;;;;15.03;10.00;;;11.60;99.90;;;;;;4422172;32;20139;-76
2021/04/30 04:04:53;;;;;;;18.53;10.30;;;11.70;99.90;;;;;;4422636;32;20165;-76
2021/04/30 04:07:22;;;;;;;14.93;9.40;;;11.70;99.90;;;;;;4471145;32;20199;-76
2021/04/30 04:09:52;;;;;;;15.73;10.10;;;11.70;99.90;;;;;;4471185;32;20150;-75
2021/04/30 04:12:35;;;;;;;15.67;9.20;;;11.70;99.90;;;;;;4471191;32;20149;-76
2021/04/30 04:15:05;;;;;;;15.40;10.20;;;11.70;99.90;;;;;;4471145;32;20192;-76
2021/04/30 04:17:47;;;;;;;16.80;9.97;;;11.70;99.90;;;;;;4472216;32;20142;-75
2021/04/30 04:20:23;;;;;;;13.50;9.03;;;11.70;99.90;;;;;;4472279;32;20149;-75
2021/04/30 04:23:30;;;;;;;14.93;9.67;;;11.70;99.90;;;;;;4470686;32;20395;-76
2021/04/30 04:26:18;;;;;;;14.60;9.30;;;11.70;99.90;;;;;;4471105;32;20184;-75
2021/04/30 04:28:51;;;;;;;14.63;9.63;;;11.70;99.90;;;;;;4471082;32;20218;-75
2021/04/30 04:31:31;;;;;;;14.77;9.30;;;11.70;99.90;;;;;;4470815;32;20160;-75
2021/04/30 04:34:09;;;;;;;15.17;8.53;;;11.70;99.90;;;;;;4470497;32;20193;-76
2021/04/30 04:36:39;;;;;;;12.03;8.47;;;11.80;99.90;;;;;;4472386;32;20146;-75
2021/04/30 04:39:25;;;;;;;13.67;8.33;;;11.80;99.90;;;;;;4469132;32;20233;-75
2021/04/30 04:42:06;;;;;;;11.77;8.13;;;11.80;99.90;;;;;;4471322;32;20225;-75
2021/04/30 04:44:40;;;;;;;12.03;8.17;;;11.80;99.90;;;;;;4471292;32;20356;-75
2021/04/30 04:47:18;;;;;;;11.13;7.83;;;11.80;99.90;;;;;;4470560;32;20168;-75
2021/04/30 04:50:06;;;;;;;12.60;8.10;;;11.70;99.90;;;;;;4471536;32;20158;-75
2021/04/30 04:52:40;;;;;;;11.57;8.00;;;11.60;99.90;;;;;;4471254;32;20145;-75
2021/04/30 04:55:17;;;;;;;12.30;8.27;;;11.60;99.90;;;;;;4472152;32;20161;-75
2021/04/30 04:57:48;;;;;;;15.73;8.50;;;11.60;99.90;;;;;;4470856;32;20186;-75
2021/04/30 05:00:18;;;;;;;12.37;8.23;;;11.60;99.90;;;;;;4470917;32;20184;-75
2021/04/30 05:02:50;;;;;;;12.63;8.03;;;11.60;99.90;;;;;;4470867;32;20169;-75
2021/04/30 05:05:22;;;;;;;12.83;8.00;;;11.70;99.90;;;;;;4470403;32;20138;-76
2021/04/30 05:08:02;;;;;;;13.30;7.40;;;11.80;99.90;;;;;;4471066;32;20165;-76
2021/04/30 05:10:51;;;;;;;14.20;8.60;;;11.80;99.90;;;;;;4470774;32;20146;-75
2021/04/30 05:13:40;;;;;;;10.80;7.97;;;11.80;99.90;;;;;;4470982;32;20145;-75
2021/04/30 05:16:45;;;;;;;12.13;7.67;;;11.80;99.90;;;;;;4471944;32;20135;-75
2021/04/30 05:19:28;;;;;;;12.97;8.00;;;11.80;99.90;;;;;;4470353;32;20240;-81
2021/04/30 05:21:57;;;;;;;12.13;8.37;;;11.80;99.90;;;;;;4473279;32;20506;-75
2021/04/30 05:24:41;;;;;;;12.00;7.77;;;11.80;99.90;;;;;;4473262;32;20134;-75
2021/04/30 05:27:20;;;;;;;13.37;8.00;;;11.70;99.90;;;;;;4473119;32;20428;-75
2021/04/30 05:29:49;;;;;;;13.07;8.10;;;11.70;99.90;;;;;;4473700;32;20470;-75
2021/04/30 05:32:29;;;;;;;13.03;8.33;;;11.70;99.90;;;;;;4473488;32;20276;-75
2021/04/30 05:35:05;;;;;;;13.03;8.23;;;11.80;99.90;;;;;;4474003;32;20250;-75
2021/04/30 05:37:57;;;;;;;14.93;8.30;;;11.90;99.90;;;;;;4473425;32;20201;-75
2021/04/30 05:40:31;;;;;;;11.20;7.93;;;11.90;99.90;;;;;;4473128;32;20137;-75
2021/04/30 05:43:12;;;;;;;13.03;8.00;;;12.00;99.90;;;;;;4474949;32;20190;-75
2021/04/30 05:45:51;;;;;;;12.07;7.97;;;12.10;99.90;;;;;;4472993;32;20172;-75
2021/04/30 05:48:32;;;;;;;12.17;7.47;;;12.20;99.90;;;;;;4474488;32;20153;-75
2021/04/30 05:51:15;;;;;;;11.93;7.60;;;12.30;99.90;;;;;;4472907;32;20199;-75
2021/04/30 05:53:52;;;;;;;11.77;7.60;;;12.40;99.90;;;;;;4473005;32;20206;-75
2021/04/30 05:56:39;;;;;;;11.17;7.67;;;12.50;99.90;;;;;;4472104;32;20154;-75
2021/04/30 05:59:16;;;;;;;11.03;8.27;;;12.60;99.90;;;;;;4472494;32;20173;-75
2021/04/30 06:01:56;;;;;;;10.33;7.23;;;12.70;99.90;;;;;;4472793;32;20224;-75
2021/04/30 06:04:54;;;;;;;10.37;7.03;;;12.60;99.90;;;;;;4471419;32;20150;-75
2021/04/30 06:07:25;;;;;;;11.17;7.43;;;12.70;99.90;;;;;;4473722;32;20183;-75
2021/04/30 06:10:05;;;;;;;10.70;7.50;;;12.70;99.90;;;;;;4473050;32;20145;-75
2021/04/30 06:12:31;;;;;;;12.23;7.87;;;12.70;99.90;;;;;;4472634;32;20153;-75
2021/04/30 06:15:05;;;;;;;12.07;7.60;;;12.90;99.90;;;;;;4471978;32;20150;-75
2021/04/30 06:17:38;;;;;;;11.30;8.10;;;13.00;99.90;;;;;;4472695;32;20176;-75
2021/04/30 06:20:28;;;;;;;10.37;7.60;;;13.00;99.90;;;;;;4424952;32;20528;-76
2021/04/30 06:23:35;;;;;;;12.50;7.73;;;13.10;99.90;;;;;;4423887;32;20150;-75
2021/04/30 06:26:43;;;;;;;11.67;7.50;;;13.20;99.90;;;;;;4393060;32;20152;-76
2021/04/30 06:29:15;;;;;;;13.07;7.90;;;13.20;99.90;;;;;;4392084;32;20452;-76
2021/04/30 06:31:48;;;;;;;13.27;8.07;;;13.20;99.90;;;;;;4393250;32;20559;-76
2021/04/30 06:34:20;;;;;;;11.47;8.10;;;13.30;99.90;;;;;;4393151;32;20480;-77
2021/04/30 06:36:58;;;;;;;14.37;8.57;;;13.40;99.90;;;;;;4394382;32;20412;-77
2021/04/30 06:39:31;;;;;;;12.67;8.07;;;13.50;99.90;;;;;;4393224;32;20182;-76
2021/04/30 06:42:13;;;;;;;10.27;7.13;;;13.60;99.90;;;;;;4392615;32;20202;-75
2021/04/30 06:44:43;;;;;;;16.07;8.00;;;13.70;99.90;;;;;;4393214;32;20225;-76
2021/04/30 06:47:16;;;;;;;14.17;8.23;;;13.60;99.90;;;;;;4393318;32;20143;-75
2021/04/30 06:49:48;;;;;;;13.43;8.27;;;13.90;99.90;;;;;;4393018;32;20199;-76
2021/04/30 06:52:17;;;;;;;12.00;8.40;;;13.90;99.90;;;;;;4393545;32;20389;-76
2021/04/30 06:54:58;;;;;;;13.50;8.27;;;14.00;97.40;;;;;;4393301;32;20201;-75
2021/04/30 06:57:42;;;;;;;12.47;8.20;;;14.20;96.80;;;;;;4411583;32;20428;-75
2021/04/30 07:00:15;;;;;;;13.67;8.70;;;14.30;95.70;;;;;;4423473;32;20158;-76
2021/04/30 07:02:46;;;;;;;13.67;9.03;;;14.30;94.70;;;;;;4439328;32;20179;-76
2021/04/30 07:05:29;;;;;;;13.13;9.43;;;14.50;92.70;;;;;;4472511;32;20165;-76
2021/04/30 07:08:03;;;;;;;12.83;8.77;;;14.60;91.70;;;;;;4472305;32;20486;-76
2021/04/30 07:10:35;;;;;;;11.87;8.13;;;14.60;88.00;;;;;;4472010;32;20141;-76
2021/04/30 07:13:12;;;;;;;11.70;8.20;;;14.60;89.00;;;;;;4471799;32;20137;-75
2021/04/30 07:15:38;;;;;;;14.70;8.60;;;14.60;89.60;;;;;;4457166;32;20173;-75
2021/04/30 07:18:05;;;;;;;15.03;9.00;;;14.60;88.90;;;;;;4473068;32;20213;-76
2021/04/30 07:20:34;;;;;;;15.07;9.30;;;14.70;89.10;;;;;;4472811;32;20463;-75
2021/04/30 07:23:01;;;;;;;13.20;9.10;;;14.80;87.90;;;;;;4471524;32;20157;-76
2021/04/30 07:25:28;;;;;;;16.63;8.93;;;14.80;87.80;;;;;;4472981;32;20169;-74
2021/04/30 07:27:55;;;;;;;14.27;9.70;;;14.90;87.10;;;;;;4471503;32;20170;-77
2021/04/30 07:30:22;;;;;;;16.13;9.47;;;14.80;85.80;;;;;;4471453;32;20161;-76
2021/04/30 07:32:49;;;;;;;14.10;9.10;;;14.80;85.90;;;;;;4471798;32;20163;-76
2021/04/30 07:35:35;;;;;;;13.03;8.47;;;14.90;85.80;;;;;;4471604;32;20386;-75
2021/04/30 07:38:04;;;;;;;12.70;8.13;;;15.10;83.90;;;;;;4471301;32;20416;-75
2021/04/30 07:40:31;;;;;;;13.63;9.07;;;15.10;84.40;;;;;;4470964;32;20467;-75
2021/04/30 07:42:58;;;;;;;12.73;8.83;;;15.20;82.60;;;;;;4471188;32;20164;-76
2021/04/30 07:45:25;;;;;;;14.03;9.23;;;15.20;82.60;;;;;;4472737;32;20533;-76
2021/04/30 07:47:52;;;;;;;14.37;9.13;;;15.30;81.90;;;;;;4471110;32;20190;-75
2021/04/30 07:50:20;;;;;;;12.63;8.90;;;15.30;81.20;;;;;;4470852;32;20166;-75
2021/04/30 07:52:46;;;;;;;12.80;9.10;;;15.20;80.30;;;;;;4472580;32;20337;-75
2021/04/30 07:55:13;;;;;;;11.83;8.37;;;15.20;79.60;;;;;;4456041;32;20430;-75
2021/04/30 07:57:39;;;;;;;12.20;8.47;;;15.40;79.20;;;;;;4471030;32;20156;-75
2021/04/30 08:00:07;;;;;;;12.77;9.00;;;15.60;78.90;;;;;;4471103;32;20189;-75
2021/04/30 08:02:33;;;;;;;14.67;9.13;;;15.70;73.90;;;;;;4471541;32;20138;-75
2021/04/30 08:05:00;;;;;;;14.53;9.60;;;15.70;74.80;;;;;;4470962;32;20137;-75
2021/04/30 08:07:26;;;;;;;15.37;10.40;;;15.70;74.30;;;;;;4470947;32;20161;-75
2021/04/30 08:09:54;;;;;;;15.63;10.33;;;15.80;73.10;;;;;;4470980;32;20183;-75
2021/04/30 08:12:23;;;;;;;15.70;11.10;;;15.90;71.50;;;;;;4470839;32;20161;-75
2021/04/30 08:14:49;;;;;;;15.97;9.80;;;16.30;70.10;;;;;;4470928;32;20159;-76
2021/04/30 08:17:16;;;;;;;14.67;9.57;;;16.70;69.70;;;;;;4470395;32;20193;-75
2021/04/30 08:19:42;;;;;;;13.73;8.90;;;16.60;68.40;;;;;;4472252;32;20142;-75
2021/04/30 08:22:09;;;;;;;11.83;8.50;;;16.70;67.70;;;;;;4471521;32;20202;-75
2021/04/30 08:24:35;;;;;;;13.30;7.50;;;16.40;68.40;;;;;;4470902;32;20215;-75
2021/04/30 08:27:02;;;;;;;10.80;6.73;;;16.60;67.30;;;;;;4470679;32;20138;-75
2021/04/30 08:29:29;;;;;;;10.53;6.77;;;16.70;66.60;;;;;;4470745;32;20138;-74
2021/04/30 08:31:55;;;;;;;9.20;6.30;;;16.50;65.10;;;;;;4470754;32;20204;-76
2021/04/30 08:34:22;;;;;;;10.30;6.43;;;16.40;64.10;;;;;;4470668;32;20380;-76
2021/04/30 08:37:09;;;;;;;7.90;5.67;;;16.50;63.90;;;;;;4472443;32;20194;-77
2021/04/30 08:39:35;;;;;;;9.30;6.60;;;17.00;60.60;;;;;;4472115;32;20204;-76
2021/04/30 08:42:02;;;;;;;10.63;6.57;;;16.90;62.40;;;;;;4470533;32;20350;-77
2021/04/30 08:44:29;;;;;;;8.73;6.37;;;17.10;63.30;;;;;;4470735;32;20133;-77
2021/04/30 08:46:56;;;;;;;7.03;5.60;;;17.70;60.50;;;;;;4470670;32;20176;-75
2021/04/30 08:49:23;;;;;;;9.30;5.37;;;18.00;59.60;;;;;;4470582;32;20138;-75
2021/04/30 08:51:49;;;;;;;10.43;5.20;;;17.90;54.60;;;;;;4470461;32;20480;-75
2021/04/30 08:54:16;;;;;;;8.40;5.57;;;18.10;54.60;;;;;;4472574;32;20422;-77
2021/04/30 08:56:45;;;;;;;9.03;5.50;;;18.00;54.50;;;;;;4473195;32;20135;-75
2021/04/30 08:59:12;;;;;;;7.70;5.80;;;18.00;55.70;;;;;;4473852;32;20254;-74
2021/04/30 09:01:39;;;;;;;9.67;5.57;;;18.10;55.80;;;;;;4473703;32;20536;-74
2021/04/30 09:04:07;;;;;;;8.87;6.07;;;18.30;55.60;;;;;;4473832;32;20181;-75
2021/04/30 09:06:35;;;;;;;9.83;6.30;;;18.60;54.10;;;;;;4473493;32;20158;-75
2021/04/30 09:09:14;;;;;;;10.00;5.67;;;18.50;54.20;;;;;;4473674;32;20237;-73
2021/04/30 09:11:47;;;;;;;10.97;6.90;;;18.20;56.70;;;;;;4473090;32;20134;-73
2021/04/30 09:14:32;;;;;;;9.80;6.70;;;18.10;56.20;;;;;;4473115;32;20150;-73
2021/04/30 09:17:09;;;;;;;10.17;6.43;;;18.00;56.60;;;;;;4474013;32;20165;-73
2021/04/30 09:19:50;;;;;;;10.00;6.57;;;18.10;57.70;;;;;;4473056;32;20233;-75
2021/04/30 09:22:25;;;;;;;10.53;7.03;;;18.40;56.40;;;;;;4473138;32;20142;-73
2021/04/30 09:24:57;;;;;;;9.87;7.33;;;18.30;57.80;;;;;;4472584;32;20190;-72
2021/04/30 09:27:43;;;;;;;13.70;7.80;;;18.20;58.10;;;;;;4473151;32;20134;-74
2021/04/30 09:30:36;;;;;;;10.90;7.50;;;18.20;58.50;;;;;;4472824;32;20502;-73
2021/04/30 09:33:12;;;;;;;10.60;7.00;;;18.40;58.10;;;;;;4472917;32;20461;-75
2021/04/30 09:35:45;;;;;;;10.97;6.80;;;18.80;58.20;;;;;;4473093;32;20137;-74
2021/04/30 09:38:32;;;;;;;9.67;6.80;;;19.60;56.70;;;;;;4474651;32;20142;-74
2021/04/30 09:41:01;;;;;;;11.17;6.87;;;20.00;54.10;;;;;;4473211;32;20134;-74
2021/04/30 09:43:50;;;;;;;8.63;6.97;;;20.10;54.80;;;;;;4472492;32;20387;-74
2021/04/30 09:46:36;;;;;;;11.13;7.40;;;20.20;52.70;;;;;;4472755;32;20243;-74
2021/04/30 09:49:14;;;;;;;10.37;7.80;;;20.10;53.90;;;;;;4474595;32;20172;-74
2021/04/30 09:51:47;;;;;;;12.67;8.37;;;20.20;53.40;;;;;;4473055;32;20205;-75
2021/04/30 09:54:35;;;;;;;14.10;9.10;;;20.50;53.70;;;;;;4474767;32;20150;-77
2021/04/30 09:57:01;;;;;;;12.17;8.67;;;20.30;53.60;;;;;;4472978;32;20134;-79
2021/04/30 09:59:33;;;;;;;11.00;8.33;;;20.10;55.10;;;;;;4474348;32;20172;-76
2021/04/30 10:02:11;;;;;;;13.27;8.63;;;20.00;54.20;;;;;;4472939;32;20150;-74
2021/04/30 10:04:40;;;;;;;12.43;9.00;;;19.90;54.10;;;;;;4474386;32;20134;-75
2021/04/30 10:07:11;;;;;;;10.43;8.17;;;19.80;53.80;;;;;;4472627;32;20166;-75
2021/04/30 10:09:39;;;;;;;11.20;8.77;;;19.20;54.60;;;;;;4473022;32;20130;-75
2021/04/30 10:12:28;;;;;;;10.27;8.33;;;18.90;55.70;;;;;;4474081;32;20495;-75
2021/04/30 10:14:55;;;;;;;12.63;9.30;;;19.40;56.00;;;;;;4472407;32;20176;-74
2021/04/30 10:17:21;;;;;;;14.30;9.50;;;19.80;53.50;;;;;;4473142;32;20138;-75
2021/04/30 10:19:50;;;;;;;11.37;8.23;;;19.70;53.10;;;;;;4471511;32;20145;-75
2021/04/30 10:22:24;;;;;;;13.97;9.00;;;19.70;53.20;;;;;;4472361;32;20187;-75
2021/04/30 10:25:17;;;;;;;13.30;9.67;;;19.50;53.10;;;;;;4472797;32;20366;-77
2021/04/30 10:27:46;;;;;;;14.00;9.60;;;19.00;54.60;;;;;;4472638;32;20157;-77
2021/04/30 10:30:22;;;;;;;11.50;9.30;;;18.90;54.60;;;;;;4472509;32;20165;-77
2021/04/30 10:33:01;;;;;;;14.90;9.97;;;19.30;54.30;;;;;;4472233;32;20138;-76
2021/04/30 10:35:48;;;;;;;15.00;9.70;;;19.20;54.10;;;;;;4473751;32;20169;-76
2021/04/30 10:38:20;;;;;;;14.87;9.43;;;19.60;53.60;;;;;;4473062;32;20187;-76
2021/04/30 10:41:10;;;;;;;17.93;9.40;;;19.90;53.20;;;;;;4473600;32;20215;-76
2021/04/30 10:43:38;;;;;;;12.67;9.30;;;20.10;52.70;;;;;;4394234;32;20147;-76
2021/04/30 10:46:13;;;;;;;14.70;8.60;;;20.40;51.80;;;;;;4392993;32;20205;-76
2021/04/30 10:49:05;;;;;;;14.33;9.93;;;20.70;51.80;;;;;;4393503;32;20154;-76
2021/04/30 10:51:33;;;;;;;11.30;8.73;;;20.40;49.40;;;;;;4393118;32;20227;-76
2021/04/30 10:54:23;;;;;;;12.77;9.03;;;20.20;50.40;;;;;;4392703;32;20234;-76
2021/04/30 10:57:18;;;;;;;11.90;8.70;;;20.10;50.60;;;;;;4392918;32;20219;-76
2021/04/30 10:59:52;;;;;;;12.10;8.63;;;19.90;50.00;;;;;;4393946;32;20536;-76
2021/04/30 11:02:24;;;;;;;12.53;8.07;;;20.00;50.70;;;;;;4393588;32;20178;-76
2021/04/30 11:05:03;;;;;;;12.23;8.00;;;20.40;48.90;;;;;;4393389;32;20155;-76
2021/04/30 11:07:51;;;;;;;10.37;7.83;;;20.20;49.80;;;;;;4393042;32;20244;-77
2021/04/30 11:10:20;;;;;;;9.60;7.17;;;20.00;48.60;;;;;;4393645;32;20160;-76
2021/04/30 11:13:06;;;;;;;12.83;8.20;;;19.80;49.40;;;;;;4394025;32;20156;-76
2021/04/30 11:15:53;;;;;;;11.87;7.40;;;20.30;48.30;;;;;;4393096;32;20210;-76
2021/04/30 11:18:21;;;;;;;12.03;7.53;;;20.30;47.80;;;;;;4393533;32;20151;-76
2021/04/30 11:21:03;;;;;;;10.33;7.63;;;19.90;48.70;;;;;;4435607;32;20184;-76
2021/04/30 11:23:36;;;;;;;12.37;7.23;;;19.70;49.50;;;;;;4473072;32;20179;-76
2021/04/30 11:26:07;;;;;;;10.07;7.30;;;19.50;48.80;;;;;;4471575;32;20471;-76
2021/04/30 11:28:34;;;;;;;9.57;6.73;;;19.90;48.20;;;;;;4471740;32;20165;-76
2021/04/30 11:31:15;;;;;;;11.10;7.00;;;20.40;47.80;;;;;;4471145;32;20138;-75
2021/04/30 11:33:43;;;;;;;10.13;7.37;;;19.60;48.20;;;;;;4470530;32;20138;-75
2021/04/30 11:36:12;;;;;;;12.27;7.53;;;20.10;48.90;;;;;;4472006;32;20191;-76
2021/04/30 11:38:41;;;;;;;11.03;7.77;;;20.60;46.20;;;;;;4471858;32;20197;-76
2021/04/30 11:41:10;;;;;;;10.03;7.20;;;20.20;46.40;;;;;;4471148;32;20376;-76
2021/04/30 11:43:39;;;;;;;8.70;7.07;;;19.90;48.70;;;;;;4471198;32;20157;-76
2021/04/30 11:46:06;;;;;;;11.97;7.60;;;21.30;46.40;;;;;;4472528;32;20135;-76
2021/04/30 11:48:34;;;;;;;11.03;7.23;;;20.60;47.00;;;;;;4471117;32;20150;-76
2021/04/30 11:51:04;;;;;;;10.10;7.67;;;20.40;47.70;;;;;;4470923;32;20227;-75
2021/04/30 11:53:32;;;;;;;13.87;7.30;;;21.10;45.80;;;;;;4470984;32;20156;-75
2021/04/30 11:55:59;;;;;;;10.57;7.07;;;20.70;46.70;;;;;;4471713;32;20397;-75
2021/04/30 11:58:46;;;;;;;8.93;7.37;;;21.10;45.90;;;;;;4470895;32;20196;-76
2021/04/30 12:01:14;;;;;;;9.83;8.07;;;21.70;43.80;;;;;;4471077;32;20391;-75
2021/04/30 12:03:44;;;;;;;10.47;7.13;;;20.80;44.80;;;;;;4471183;32;20533;-76
2021/04/30 12:06:14;;;;;;;11.57;8.10;;;21.20;45.90;;;;;;4471349;32;20141;-76
2021/04/30 12:08:42;;;;;;;10.13;7.47;;;21.00;45.30;;;;;;4471782;32;20391;-76
2021/04/30 12:11:31;;;;;;;10.47;8.43;;;21.00;46.50;;;;;;4470774;32;20142;-76
2021/04/30 12:14:02;;;;;;;10.83;8.47;;;20.80;45.80;;;;;;4472034;32;20164;-76
2021/04/30 12:16:28;;;;;;;10.50;8.00;;;21.20;46.50;;;;;;4471258;32;20138;-77
2021/04/30 12:18:55;;;;;;;8.73;7.13;;;22.10;45.50;;;;;;4470742;32;20344;-76
2021/04/30 12:21:33;;;;;;;11.00;9.27;;;22.40;44.50;;;;;;4470723;32;20168;-76
2021/04/30 12:24:02;;;;;;;9.00;7.60;;;21.30;45.90;;;;;;4470902;32;20158;-75
2021/04/30 12:26:34;;;;;;;11.03;8.53;;;21.50;46.10;;;;;;4470841;32;20452;-75
2021/04/30 12:29:06;;;;;;;13.07;9.17;;;22.40;44.00;;;;;;4472021;32;20189;-75
2021/04/30 12:31:33;;;;;;;14.70;9.10;;;21.60;44.40;;;;;;4472519;32;20189;-75
2021/04/30 12:34:06;;;;;;;11.30;9.07;;;20.70;46.00;;;;;;4472160;32;20535;-75
2021/04/30 12:36:36;;;;;;;12.00;8.73;;;21.10;47.10;;;;;;4471821;32;20171;-75
2021/04/30 12:39:12;;;;;;;11.30;8.70;;;21.60;46.00;;;;;;4461439;32;20173;-76
2021/04/30 12:42:08;;;;;;;12.73;8.87;;;21.60;46.20;;;;;;4455631;32;20384;-75
2021/04/30 12:44:59;;;;;;;13.40;9.00;;;21.50;45.70;;;;;;4455557;32;20151;-75
2021/04/30 12:47:46;;;;;;;13.90;9.37;;;21.60;45.40;;;;;;4406837;32;20481;-75
2021/04/30 12:50:16;;;;;;;9.77;8.37;;;21.80;45.00;;;;;;4406933;32;20367;-75
2021/04/30 12:52:47;;;;;;;11.47;9.27;;;22.70;43.50;;;;;;4406610;32;20228;-76
2021/04/30 12:55:38;;;;;;;12.30;9.47;;;22.30;44.40;;;;;;4405356;32;20187;-75
2021/04/30 12:58:24;;;;;;;12.23;8.87;;;21.70;44.80;;;;;;4408556;32;20177;-75
2021/04/30 13:01:05;;;;;;;13.57;8.87;;;21.20;45.50;;;;;;4406951;32;20421;-76
2021/04/30 13:03:42;;;;;;;12.50;9.23;;;21.60;46.00;;;;;;4407251;32;20174;-76
2021/04/30 13:06:41;;;;;;;12.77;9.40;;;21.50;45.10;;;;;;4408243;32;20174;-75
2021/04/30 13:09:13;;;;;;;11.83;8.80;;;21.40;45.60;;;;;;4408294;32;20174;-76
2021/04/30 13:12:24;;;;;;;11.73;9.10;;;21.80;45.90;;;;;;4407113;32;20159;-76
2021/04/30 13:14:56;;;;;;;12.03;9.17;;;22.90;43.80;;;;;;4346715;33;20163;-76
2021/04/30 13:17:33;;;;;;;12.37;9.10;;;23.00;42.60;;;;;;4351157;32;20247;-76
2021/04/30 13:20:26;;;;;;;;;;;;;;;;;;;;;
2021/04/30 13:23:07;;;;;;;11.20;8.70;;;22.00;43.50;;;;;;4391426;32;20226;-76
2021/04/30 13:25:58;;;;;;;14.07;10.00;;;22.60;43.70;;;;;;4392129;32;20194;-76
2021/04/30 13:28:31;;;;;;;12.60;8.73;;;22.20;43.00;;;;;;4392044;32;20415;-76
2021/04/30 13:31:10;;;;;;;13.62;9.75;;;22.80;42.90;;;;;;4392154;32;20174;-76
2021/04/30 13:33:58;;;;;;;11.80;9.87;;;22.20;42.30;;;;;;4390976;32;20179;-76
2021/04/30 13:37:02;;;;;;;13.67;9.63;;;21.60;43.60;;;;;;4391640;32;20426;-77
2021/04/30 13:39:42;;;;;;;13.50;9.00;;;21.50;44.70;;;;;;4391413;32;20219;-77